Time;durP1;ratioP1;P1;durP2;ratioP2;P2;SDS_P1;SDS_P2;PMS_P1;PMS_P2;Temp;Humidity;BMP_temperature;BMP_pressure;BME280_temperature;BME280_humidity;BME280_pressure;Samples;Min_cycle;Max_cycle;Signal;HPM_P1;HPM_P2
2023/05/27 00:02:07;;;;;;;15.85;4.13;;;8.50;99.90;;;;;;5057661;28;20497;-76
2023/05/27 00:04:33;;;;;;;14.05;4.20;;;8.50;99.90;;;;;;5041252;28;20506;-76
2023/05/27 00:06:59;;;;;;;13.75;4.15;;;8.50;99.90;;;;;;5025638;28;20097;-76
2023/05/27 00:09:25;;;;;;;13.30;3.70;;;8.50;99.90;;;;;;5033891;28;20406;-76
2023/05/27 00:11:50;;;;;;;19.17;4.28;;;8.40;99.90;;;;;;5061131;28;20069;-76
2023/05/27 00:14:17;;;;;;;12.95;3.88;;;8.40;99.90;;;;;;5061609;28;20041;-76
2023/05/27 00:16:43;;;;;;;15.38;3.90;;;8.40;99.90;;;;;;5037557;28;20036;-75
2023/05/27 00:19:09;;;;;;;14.50;4.70;;;8.30;99.90;;;;;;5042324;28;20528;-76
2023/05/27 00:21:35;;;;;;;13.85;4.07;;;8.30;99.90;;;;;;5034274;28;20064;-76
2023/05/27 00:24:01;;;;;;;18.27;4.65;;;8.30;99.90;;;;;;5050990;28;20041;-75
2023/05/27 00:26:27;;;;;;;14.00;4.32;;;8.30;99.90;;;;;;5037780;28;20041;-76
2023/05/27 00:28:52;;;;;;;17.30;5.18;;;8.30;99.90;;;;;;5061888;28;20053;-76
2023/05/27 00:31:18;;;;;;;19.77;4.00;;;8.40;99.90;;;;;;5061601;28;20045;-76
2023/05/27 00:33:44;;;;;;;17.60;4.53;;;8.30;99.90;;;;;;5063481;28;20101;-76
2023/05/27 00:36:10;;;;;;;16.00;4.70;;;8.30;99.90;;;;;;5061050;28;20040;-76
2023/05/27 00:38:36;;;;;;;14.70;4.18;;;8.30;99.90;;;;;;5040897;28;20055;-76
2023/05/27 00:41:03;;;;;;;18.42;4.85;;;8.30;99.90;;;;;;5057352;28;20549;-76
2023/05/27 00:43:32;;;;;;;17.02;4.57;;;8.30;99.90;;;;;;5030708;28;20040;-76
2023/05/27 00:45:58;;;;;;;15.73;4.68;;;8.30;99.90;;;;;;5057728;28;20080;-75
2023/05/27 00:48:24;;;;;;;16.88;4.57;;;8.30;99.90;;;;;;5062954;28;20060;-76
2023/05/27 00:50:50;;;;;;;14.73;4.18;;;8.30;99.90;;;;;;5040502;28;20593;-76
2023/05/27 00:53:17;;;;;;;14.98;4.55;;;8.30;99.90;;;;;;5043896;28;20040;-75
2023/05/27 00:55:43;;;;;;;19.83;4.63;;;8.30;99.90;;;;;;5039642;28;21511;-76
2023/05/27 00:58:09;;;;;;;14.68;4.22;;;8.30;99.90;;;;;;5064480;28;20032;-76
2023/05/27 01:00:38;;;;;;;18.25;4.65;;;8.30;99.90;;;;;;5060351;28;20106;-76
2023/05/27 01:03:06;;;;;;;19.20;4.60;;;8.30;99.90;;;;;;5038248;28;20037;-76
2023/05/27 01:05:33;;;;;;;16.25;4.65;;;8.30;99.90;;;;;;5040980;28;20076;-76
2023/05/27 01:08:01;;;;;;;18.05;4.22;;;8.30;99.90;;;;;;5041914;28;20063;-76
2023/05/27 01:10:42;;;;;;;14.88;4.05;;;8.30;99.90;;;;;;5041126;28;20051;-76
2023/05/27 01:13:22;;;;;;;16.73;4.45;;;8.20;99.90;;;;;;5062669;28;20036;-76
2023/05/27 01:15:50;;;;;;;18.73;4.95;;;8.20;99.90;;;;;;5062205;28;20752;-76
2023/05/27 01:18:16;;;;;;;15.80;4.50;;;8.20;99.90;;;;;;5062154;28;20045;-76
2023/05/27 01:20:43;;;;;;;16.00;4.70;;;8.20;99.90;;;;;;5059174;28;21854;-76
2023/05/27 01:23:09;;;;;;;16.15;4.53;;;8.20;99.90;;;;;;5046670;28;20446;-76
2023/05/27 01:25:35;;;;;;;13.98;4.20;;;8.20;99.90;;;;;;5059433;28;20127;-76
2023/05/27 01:28:01;;;;;;;13.52;3.97;;;8.20;99.90;;;;;;5040743;28;20111;-76
2023/05/27 01:30:27;;;;;;;17.75;4.10;;;8.20;99.90;;;;;;5044051;28;20044;-76
2023/05/27 01:33:07;;;;;;;20.65;4.38;;;8.20;99.90;;;;;;5059279;28;20060;-76
2023/05/27 01:35:42;;;;;;;20.58;4.70;;;8.20;99.90;;;;;;5062102;28;20759;-76
2023/05/27 01:38:12;;;;;;;16.25;4.22;;;8.20;99.90;;;;;;5043140;28;20044;-75
2023/05/27 01:40:40;;;;;;;17.15;4.45;;;8.30;99.90;;;;;;5042221;28;21803;-76
2023/05/27 01:43:06;;;;;;;15.52;4.55;;;8.40;99.90;;;;;;5060229;28;20685;-76
2023/05/27 01:45:34;;;;;;;17.05;4.03;;;8.30;99.90;;;;;;5043100;28;20052;-76
2023/05/27 01:48:00;;;;;;;13.63;3.72;;;8.40;99.90;;;;;;5044328;28;20048;-76
2023/05/27 01:50:26;;;;;;;16.77;4.65;;;8.40;99.90;;;;;;5043557;28;20132;-76
2023/05/27 01:52:52;;;;;;;13.57;4.55;;;8.40;99.90;;;;;;5035033;28;20239;-76
2023/05/27 01:55:17;;;;;;;16.92;4.47;;;9.50;99.90;;;;;;5060142;28;20045;-76
2023/05/27 01:57:43;;;;;;;20.48;4.68;;;8.40;99.90;;;;;;5043568;28;20044;-76
2023/05/27 02:00:10;;;;;;;16.85;4.32;;;8.40;99.90;;;;;;5042633;28;20044;-75
2023/05/27 02:02:36;;;;;;;15.73;4.13;;;8.40;99.90;;;;;;5030552;28;20159;-76
2023/05/27 02:05:02;;;;;;;17.55;4.10;;;8.40;99.90;;;;;;5056804;28;20522;-75
2023/05/27 02:07:28;;;;;;;13.35;4.10;;;8.40;99.90;;;;;;5063015;28;20482;-76
2023/05/27 02:09:54;;;;;;;17.92;4.55;;;8.40;99.90;;;;;;5027311;28;20141;-76
2023/05/27 02:12:19;;;;;;;17.10;4.43;;;8.40;99.90;;;;;;5043097;28;20072;-76
2023/05/27 02:14:46;;;;;;;18.15;4.22;;;8.30;99.90;;;;;;5059422;28;20037;-76
2023/05/27 02:17:14;;;;;;;19.40;4.88;;;8.30;99.90;;;;;;5041537;28;20051;-76
2023/05/27 02:19:40;;;;;;;15.43;3.70;;;8.30;99.90;;;;;;5055419;28;20110;-76
2023/05/27 02:22:07;;;;;;;16.08;4.63;;;8.50;99.90;;;;;;5043304;28;20044;-76
2023/05/27 02:24:32;;;;;;;16.65;4.30;;;8.30;99.90;;;;;;5044334;28;20056;-76
2023/05/27 02:26:58;;;;;;;16.13;4.40;;;8.40;99.90;;;;;;5057643;28;20051;-76
2023/05/27 02:29:24;;;;;;;15.82;4.70;;;8.40;99.90;;;;;;5021966;28;20029;-76
2023/05/27 02:31:50;;;;;;;19.17;4.57;;;8.40;99.90;;;;;;5044266;28;20494;-76
2023/05/27 02:34:16;;;;;;;15.75;4.38;;;8.50;99.90;;;;;;5060918;28;20509;-76
2023/05/27 02:36:42;;;;;;;18.05;4.55;;;8.50;99.90;;;;;;5036910;28;20036;-76
2023/05/27 02:39:09;;;;;;;13.70;4.10;;;8.50;99.90;;;;;;5059707;28;20044;-76
2023/05/27 02:41:35;;;;;;;16.38;4.32;;;8.50;99.90;;;;;;5058072;28;20033;-76
2023/05/27 02:44:00;;;;;;;18.02;4.30;;;8.60;99.90;;;;;;5061756;28;20040;-76
2023/05/27 02:46:26;;;;;;;14.13;4.10;;;8.60;99.90;;;;;;5064217;28;21117;-75
2023/05/27 02:48:52;;;;;;;17.05;4.38;;;7.40;99.90;;;;;;5057152;28;20032;-76
2023/05/27 02:51:17;;;;;;;24.08;4.88;;;8.70;99.90;;;;;;5046059;28;20394;-76
2023/05/27 02:53:43;;;;;;;18.77;4.63;;;8.70;99.90;;;;;;5021454;28;20056;-76
2023/05/27 02:56:09;;;;;;;17.48;4.80;;;8.80;99.90;;;;;;5044009;28;20060;-76
2023/05/27 02:58:35;;;;;;;19.42;4.88;;;8.80;99.90;;;;;;5056691;28;20044;-76
2023/05/27 03:01:00;;;;;;;19.40;4.40;;;8.80;99.90;;;;;;5059092;28;20041;-76
2023/05/27 03:03:26;;;;;;;15.48;4.25;;;8.80;99.90;;;;;;5056027;28;20072;-76
2023/05/27 03:05:52;;;;;;;15.82;4.50;;;8.80;99.90;;;;;;5063531;28;20040;-76
2023/05/27 03:08:18;;;;;;;15.93;4.25;;;8.80;99.90;;;;;;5057861;28;20036;-76
2023/05/27 03:10:43;;;;;;;17.90;4.45;;;8.80;99.90;;;;;;5044217;28;20048;-76
2023/05/27 03:13:09;;;;;;;19.50;4.30;;;8.80;99.90;;;;;;5041837;28;20112;-76
2023/05/27 03:15:35;;;;;;;17.65;4.25;;;8.80;99.90;;;;;;5046499;28;20502;-76
2023/05/27 03:18:03;;;;;;;24.02;5.35;;;8.80;99.90;;;;;;5056413;28;20060;-76
2023/05/27 03:20:29;;;;;;;17.10;4.18;;;8.80;99.90;;;;;;5044511;28;20110;-76
2023/05/27 03:22:55;;;;;;;17.05;4.65;;;8.80;99.90;;;;;;5041201;28;20044;-76
2023/05/27 03:25:20;;;;;;;17.67;4.72;;;8.80;99.90;;;;;;5075161;28;20052;-75
2023/05/27 03:27:46;;;;;;;17.40;4.35;;;8.80;99.90;;;;;;5038104;28;20039;-76
2023/05/27 03:30:12;;;;;;;20.20;4.90;;;8.80;99.90;;;;;;5028463;28;20068;-76
2023/05/27 03:32:38;;;;;;;12.95;3.80;;;8.90;99.90;;;;;;5042990;28;20045;-76
2023/05/27 03:35:04;;;;;;;17.85;4.40;;;9.00;99.90;;;;;;5029953;28;20963;-76
2023/05/27 03:37:29;;;;;;;16.50;4.93;;;8.90;99.90;;;;;;5032195;28;20128;-76
2023/05/27 03:39:55;;;;;;;19.92;5.05;;;8.90;99.90;;;;;;5033037;28;20055;-76
2023/05/27 03:42:21;;;;;;;15.68;4.15;;;8.80;99.90;;;;;;5045481;28;20059;-76
2023/05/27 03:44:46;;;;;;;16.98;4.68;;;8.80;99.90;;;;;;5060925;28;20036;-76
2023/05/27 03:47:12;;;;;;;18.63;4.07;;;8.80;99.90;;;;;;5046504;28;20113;-76
2023/05/27 03:49:38;;;;;;;14.63;4.15;;;8.80;99.90;;;;;;5044177;28;20102;-76
2023/05/27 03:52:04;;;;;;;15.95;4.35;;;8.80;99.90;;;;;;5024767;28;20037;-76
2023/05/27 03:54:30;;;;;;;19.35;4.28;;;8.80;99.90;;;;;;5023018;28;20456;-76
2023/05/27 03:56:56;;;;;;;16.92;5.03;;;8.70;99.90;;;;;;5035987;28;20029;-76
2023/05/27 03:59:22;;;;;;;15.98;4.47;;;8.80;99.90;;;;;;5041464;28;20448;-76
2023/05/27 04:01:48;;;;;;;20.00;5.13;;;8.80;99.90;;;;;;5040193;28;20044;-76
2023/05/27 04:04:14;;;;;;;20.60;4.78;;;8.90;99.90;;;;;;5039991;28;20047;-76
2023/05/27 04:06:41;;;;;;;16.95;5.00;;;8.90;99.90;;;;;;5043493;28;20112;-76
2023/05/27 04:09:07;;;;;;;21.63;4.85;;;8.90;99.90;;;;;;5060387;28;20052;-76
2023/05/27 04:11:33;;;;;;;18.85;4.72;;;9.00;99.90;;;;;;5056321;28;20047;-76
2023/05/27 04:13:59;;;;;;;15.68;4.80;;;8.80;99.90;;;;;;5058926;28;20036;-76
2023/05/27 04:16:25;;;;;;;19.48;4.82;;;9.20;99.90;;;;;;5041314;28;20040;-76
2023/05/27 04:18:51;;;;;;;16.73;4.55;;;9.20;99.90;;;;;;5058346;28;20083;-76
2023/05/27 04:21:18;;;;;;;16.10;4.20;;;9.30;99.90;;;;;;5041249;28;20040;-76
2023/05/27 04:23:44;;;;;;;21.50;4.70;;;9.30;99.90;;;;;;5035854;28;20119;-76
2023/05/27 04:26:09;;;;;;;24.77;5.50;;;9.40;99.90;;;;;;5058321;28;20078;-76
2023/05/27 04:28:36;;;;;;;17.42;4.43;;;9.40;99.90;;;;;;5057597;28;20044;-76
2023/05/27 04:31:02;;;;;;;17.90;4.65;;;9.50;99.90;;;;;;5077172;28;20040;-76
2023/05/27 04:33:28;;;;;;;16.55;4.45;;;9.50;99.90;;;;;;5043651;28;20052;-76
2023/05/27 04:35:56;;;;;;;24.05;5.25;;;9.60;99.90;;;;;;5056507;28;20521;-76
2023/05/27 04:38:22;;;;;;;19.02;4.72;;;9.60;99.90;;;;;;5059705;28;20395;-76
2023/05/27 04:40:53;;;;;;;17.98;4.80;;;9.70;99.90;;;;;;5060159;28;20044;-75
2023/05/27 04:43:19;;;;;;;18.30;4.80;;;9.80;99.90;;;;;;5056191;28;20049;-76
2023/05/27 04:45:46;;;;;;;18.40;4.63;;;9.80;99.90;;;;;;5056533;28;20140;-76
2023/05/27 04:48:12;;;;;;;23.77;5.35;;;9.90;99.90;;;;;;5044347;28;20467;-75
2023/05/27 04:50:39;;;;;;;16.30;4.53;;;10.00;99.90;;;;;;5059258;28;20044;-76
2023/05/27 04:53:04;;;;;;;17.50;5.15;;;10.00;99.90;;;;;;5053052;28;20629;-75
2023/05/27 04:55:30;;;;;;;19.40;5.10;;;10.10;99.90;;;;;;5041772;28;20474;-76
2023/05/27 04:57:56;;;;;;;16.98;4.93;;;10.10;99.90;;;;;;5044229;28;20127;-76
2023/05/27 05:03:36;;;;;;;17.65;5.10;;;10.10;99.90;;;;;;5012026;28;20043;-76
2023/05/27 05:06:03;;;;;;;18.88;4.50;;;10.10;99.90;;;;;;5003527;28;20053;-76
2023/05/27 05:08:29;;;;;;;19.80;5.15;;;10.20;99.90;;;;;;5003990;28;20152;-76
2023/05/27 05:10:55;;;;;;;15.90;4.38;;;10.20;99.90;;;;;;5059990;28;20526;-76
2023/05/27 05:13:20;;;;;;;18.83;5.30;;;10.20;99.90;;;;;;5055597;28;20118;-76
2023/05/27 05:15:47;;;;;;;22.27;5.28;;;10.20;99.90;;;;;;5045555;28;20043;-76
2023/05/27 05:18:13;;;;;;;19.45;5.03;;;10.20;99.90;;;;;;5042900;28;20118;-76
2023/05/27 05:20:38;;;;;;;15.00;4.32;;;10.30;99.90;;;;;;5045592;28;20512;-76
2023/05/27 05:23:04;;;;;;;15.05;4.63;;;10.30;99.90;;;;;;5045342;28;20045;-76
2023/05/27 05:25:30;;;;;;;16.17;4.38;;;10.30;99.90;;;;;;5057965;28;20064;-76
2023/05/27 05:27:56;;;;;;;17.25;4.28;;;10.30;99.90;;;;;;5027430;28;20054;-76
2023/05/27 05:30:22;;;;;;;14.77;4.53;;;10.30;99.90;;;;;;5075193;28;20067;-76
2023/05/27 05:32:48;;;;;;;15.82;4.50;;;10.30;99.90;;;;;;5044875;28;20130;-76
2023/05/27 05:35:14;;;;;;;22.63;5.32;;;10.40;99.90;;;;;;5024650;28;20311;-76
2023/05/27 05:37:40;;;;;;;22.30;4.55;;;10.40;99.90;;;;;;5058102;28;20047;-76
2023/05/27 05:40:06;;;;;;;16.13;4.20;;;10.40;99.90;;;;;;5042318;28;20468;-76
2023/05/27 05:42:32;;;;;;;19.25;4.72;;;10.40;99.90;;;;;;5028294;28;20122;-76
2023/05/27 05:44:57;;;;;;;15.45;4.57;;;10.50;99.90;;;;;;5043912;28;20067;-76
2023/05/27 05:47:23;;;;;;;21.02;4.40;;;10.50;99.90;;;;;;5058245;28;20418;-77
2023/05/27 05:49:49;;;;;;;18.70;5.05;;;10.50;99.90;;;;;;5040383;28;20095;-77
2023/05/27 05:52:15;;;;;;;18.98;4.97;;;10.60;99.90;;;;;;5026748;28;20608;-77
2023/05/27 05:54:41;;;;;;;23.58;4.60;;;10.50;99.90;;;;;;5049719;28;20123;-76
2023/05/27 05:57:06;;;;;;;17.23;4.88;;;10.60;99.90;;;;;;5061321;28;20147;-77
2023/05/27 05:59:32;;;;;;;19.48;4.93;;;10.60;99.90;;;;;;5065208;28;20074;-77
2023/05/27 06:01:58;;;;;;;24.42;5.38;;;10.70;99.90;;;;;;5049851;28;20490;-76
2023/05/27 06:04:23;;;;;;;18.58;4.75;;;10.80;99.90;;;;;;5066221;28;20043;-76
2023/05/27 06:06:49;;;;;;;23.63;4.80;;;10.80;99.90;;;;;;5044807;28;20289;-76
2023/05/27 06:09:15;;;;;;;25.15;5.40;;;10.90;99.90;;;;;;5050995;28;20064;-76
2023/05/27 06:11:40;;;;;;;18.60;5.32;;;11.00;99.90;;;;;;5046110;28;20050;-77
2023/05/27 06:14:07;;;;;;;20.15;5.05;;;11.20;99.90;;;;;;5060150;28;20529;-76
2023/05/27 06:16:35;;;;;;;29.58;5.50;;;11.40;99.90;;;;;;5045457;28;20051;-76
2023/05/27 06:19:01;;;;;;;19.75;5.13;;;11.50;99.90;;;;;;5042350;28;20115;-76
2023/05/27 06:21:29;;;;;;;23.63;5.53;;;11.60;99.90;;;;;;5058494;28;20393;-76
2023/05/27 06:23:58;;;;;;;22.75;5.18;;;11.80;99.90;;;;;;5050904;28;20075;-76
2023/05/27 06:26:25;;;;;;;19.15;5.20;;;12.70;99.90;;;;;;5056623;28;20095;-76
2023/05/27 06:28:51;;;;;;;21.05;4.97;;;12.00;99.90;;;;;;5049522;28;20087;-76
2023/05/27 06:31:17;;;;;;;22.25;4.63;;;12.00;99.90;;;;;;5054540;28;20515;-75
2023/05/27 06:33:42;;;;;;;26.33;5.13;;;12.10;99.90;;;;;;5063595;28;20048;-76
2023/05/27 06:36:08;;;;;;;18.02;4.80;;;12.30;99.90;;;;;;5068172;28;20040;-76
2023/05/27 06:38:34;;;;;;;20.58;4.50;;;12.50;99.90;;;;;;5036855;28;20084;-76
2023/05/27 06:41:00;;;;;;;17.73;4.50;;;12.50;99.90;;;;;;5042363;28;20440;-76
2023/05/27 06:43:25;;;;;;;19.02;4.70;;;12.50;99.90;;;;;;5054439;28;20035;-76
2023/05/27 06:45:51;;;;;;;17.63;5.07;;;12.70;99.90;;;;;;5016409;28;20033;-76
2023/05/27 06:48:17;;;;;;;23.45;6.03;;;12.70;99.90;;;;;;5063134;28;20047;-75
2023/05/27 06:50:43;;;;;;;21.25;5.20;;;12.70;99.90;;;;;;5049278;28;20120;-75
2023/05/27 06:53:10;;;;;;;20.48;4.95;;;12.70;99.90;;;;;;5050243;28;20044;-75
2023/05/27 06:55:36;;;;;;;22.85;4.70;;;12.80;99.90;;;;;;5050522;28;20040;-76
2023/05/27 06:58:02;;;;;;;20.33;4.65;;;12.90;99.90;;;;;;5048134;28;20121;-76
2023/05/27 07:00:27;;;;;;;17.88;4.43;;;13.10;99.90;;;;;;5046296;28;20044;-75
2023/05/27 07:02:53;;;;;;;20.10;5.28;;;13.10;99.90;;;;;;5064520;28;20094;-75
2023/05/27 07:05:19;;;;;;;20.20;5.28;;;13.20;99.90;;;;;;5053795;28;20123;-76
2023/05/27 07:07:45;;;;;;;19.10;5.32;;;13.40;99.90;;;;;;5052000;28;20044;-76
2023/05/27 07:10:11;;;;;;;19.50;5.20;;;13.50;99.90;;;;;;5035142;28;20041;-75
2023/05/27 07:12:37;;;;;;;21.23;6.57;;;13.40;99.90;;;;;;5051103;28;20044;-75
2023/05/27 07:15:03;;;;;;;21.38;7.18;;;13.50;99.90;;;;;;5026749;28;20041;-75
2023/05/27 07:17:28;;;;;;;24.73;8.70;;;13.40;99.90;;;;;;5055778;28;20382;-76
2023/05/27 07:19:54;;;;;;;20.80;7.05;;;13.50;99.90;;;;;;5049256;28;20049;-76
2023/05/27 07:22:20;;;;;;;19.27;6.28;;;13.70;99.90;;;;;;5051988;28;20071;-75
2023/05/27 07:24:47;;;;;;;26.15;7.07;;;13.80;99.90;;;;;;5050775;28;20130;-75
2023/05/27 07:27:13;;;;;;;21.80;5.20;;;13.90;99.90;;;;;;5047662;28;20510;-76
2023/05/27 07:29:38;;;;;;;20.45;4.93;;;13.90;99.90;;;;;;5038486;28;20052;-76
2023/05/27 07:32:05;;;;;;;17.08;5.00;;;14.00;99.90;;;;;;5038479;28;20060;-76
2023/05/27 07:34:31;;;;;;;18.85;4.88;;;14.10;99.90;;;;;;5051822;28;20033;-76
2023/05/27 07:36:56;;;;;;;19.20;4.78;;;14.20;99.90;;;;;;5065488;28;20375;-75
2023/05/27 07:39:22;;;;;;;18.05;5.43;;;14.10;99.90;;;;;;5029965;28;20056;-75
2023/05/27 07:41:48;;;;;;;20.85;4.68;;;14.30;99.90;;;;;;5058806;28;20111;-76
2023/05/27 07:44:13;;;;;;;15.35;4.60;;;14.30;99.90;;;;;;5048639;28;20044;-76
2023/05/27 07:46:39;;;;;;;15.90;4.75;;;14.30;99.90;;;;;;5032870;28;20037;-76
2023/05/27 07:49:05;;;;;;;18.60;4.95;;;14.10;99.90;;;;;;5055010;28;20090;-75
2023/05/27 07:51:31;;;;;;;16.67;4.80;;;14.10;99.90;;;;;;5065009;28;20054;-76
2023/05/27 07:53:57;;;;;;;17.63;4.70;;;14.10;99.90;;;;;;5029019;28;20111;-75
2023/05/27 07:56:23;;;;;;;20.48;4.47;;;14.40;99.90;;;;;;5060908;28;20123;-76
2023/05/27 07:58:48;;;;;;;17.52;4.40;;;14.50;99.90;;;;;;5049456;28;20110;-76
2023/05/27 08:01:14;;;;;;;19.88;4.85;;;14.60;99.90;;;;;;5052647;28;20052;-75
2023/05/27 08:03:40;;;;;;;18.40;4.60;;;14.70;99.90;;;;;;5040276;28;20438;-76
2023/05/27 08:06:06;;;;;;;20.35;4.88;;;14.70;99.90;;;;;;5038245;28;20043;-76
2023/05/27 08:08:32;;;;;;;16.83;4.68;;;14.60;99.90;;;;;;5037722;28;20040;-75
2023/05/27 08:10:58;;;;;;;18.27;4.70;;;14.70;99.90;;;;;;5031213;28;20063;-76
2023/05/27 08:13:23;;;;;;;20.67;5.05;;;14.70;99.90;;;;;;5051447;28;20045;-76
2023/05/27 08:15:49;;;;;;;17.85;4.93;;;14.80;99.90;;;;;;5048578;28;20048;-75
2023/05/27 08:18:15;;;;;;;16.95;4.90;;;14.80;99.90;;;;;;5049972;28;20040;-75
2023/05/27 08:20:41;;;;;;;17.10;4.70;;;15.00;99.90;;;;;;5027048;28;20106;-75
2023/05/27 08:23:07;;;;;;;19.80;4.78;;;15.10;99.90;;;;;;5054431;28;20510;-76
2023/05/27 08:25:32;;;;;;;16.08;4.25;;;15.00;99.90;;;;;;5045637;28;20044;-75
2023/05/27 08:28:01;;;;;;;19.13;4.70;;;14.90;99.90;;;;;;5030797;28;20522;-75
2023/05/27 08:30:30;;;;;;;15.98;4.53;;;15.00;99.90;;;;;;5024351;28;20493;-76
2023/05/27 08:32:56;;;;;;;15.85;4.55;;;15.30;99.90;;;;;;5046259;28;20044;-75
2023/05/27 08:35:22;;;;;;;20.73;4.53;;;15.50;99.90;;;;;;5056379;28;20131;-75
2023/05/27 08:37:48;;;;;;;17.48;4.63;;;15.30;99.90;;;;;;5025332;28;20128;-75
2023/05/27 08:40:16;;;;;;;14.35;4.15;;;15.40;99.90;;;;;;5036515;28;20048;-76
2023/05/27 08:42:42;;;;;;;17.02;5.25;;;15.50;99.90;;;;;;5038660;28;20048;-76
2023/05/27 08:45:09;;;;;;;17.02;4.32;;;15.60;99.90;;;;;;5057024;28;20051;-76
2023/05/27 08:47:35;;;;;;;17.50;4.43;;;15.80;99.90;;;;;;5040305;28;20040;-76
2023/05/27 08:50:01;;;;;;;19.70;5.00;;;15.90;99.90;;;;;;5062868;28;20098;-76
2023/05/27 08:52:28;;;;;;;16.73;4.70;;;16.10;99.90;;;;;;5044304;28;20041;-76
2023/05/27 08:54:58;;;;;;;18.33;4.80;;;16.20;99.90;;;;;;5065657;28;20048;-76
2023/05/27 08:57:35;;;;;;;16.27;4.65;;;16.40;99.90;;;;;;5063634;28;20502;-76
2023/05/27 09:00:01;;;;;;;18.42;4.50;;;16.30;99.90;;;;;;5046069;28;20036;-76
2023/05/27 09:02:27;;;;;;;17.88;4.50;;;16.30;99.90;;;;;;5065649;28;20060;-76
2023/05/27 09:04:53;;;;;;;18.42;4.28;;;16.30;99.90;;;;;;5047330;28;20086;-76
2023/05/27 09:07:22;;;;;;;19.35;5.07;;;16.30;99.90;;;;;;5061428;28;20029;-76
2023/05/27 09:09:56;;;;;;;17.85;4.68;;;16.30;99.90;;;;;;5064060;28;20405;-76
2023/05/27 09:12:24;;;;;;;17.77;4.95;;;16.60;99.90;;;;;;5058569;28;20418;-76
2023/05/27 09:14:51;;;;;;;335.13;40.28;;;16.70;99.90;;;;;;5039981;28;20048;-76
2023/05/27 09:17:16;;;;;;;15.80;4.60;;;16.70;99.90;;;;;;5048154;28;20047;-76
2023/05/27 09:19:45;;;;;;;563.22;163.48;;;16.80;99.90;;;;;;5047108;28;20044;-76
2023/05/27 09:22:22;;;;;;;16.67;4.13;;;17.00;99.90;;;;;;5063003;28;20115;-76
2023/05/27 09:24:49;;;;;;;16.13;4.50;;;17.10;99.90;;;;;;5060325;28;20041;-76
2023/05/27 09:27:15;;;;;;;18.30;4.90;;;17.00;99.90;;;;;;5064348;28;20462;-76
2023/05/27 09:29:41;;;;;;;16.10;4.63;;;17.00;99.90;;;;;;5042555;28;20568;-76
2023/05/27 09:32:08;;;;;;;15.75;4.68;;;17.10;99.90;;;;;;5062857;28;20028;-76
2023/05/27 09:34:40;;;;;;;17.75;4.95;;;17.10;99.90;;;;;;5042925;28;20036;-76
2023/05/27 09:37:12;;;;;;;15.15;4.85;;;17.30;99.90;;;;;;5061406;28;20114;-76
2023/05/27 09:39:39;;;;;;;16.52;4.60;;;17.20;99.90;;;;;;5058628;28;20051;-76
2023/05/27 09:42:05;;;;;;;17.70;5.10;;;17.20;99.90;;;;;;5064690;28;20028;-76
2023/05/27 09:44:37;;;;;;;17.48;5.00;;;17.40;99.90;;;;;;5045107;28;20338;-76
2023/05/27 09:47:04;;;;;;;18.40;5.18;;;17.50;99.90;;;;;;5046187;28;20099;-76
2023/05/27 09:49:32;;;;;;;17.30;4.97;;;17.60;99.90;;;;;;5064984;28;20517;-76
2023/05/27 09:52:00;;;;;;;19.23;5.47;;;17.60;99.90;;;;;;5060475;28;20241;-76
2023/05/27 09:54:25;;;;;;;16.52;4.95;;;17.50;99.90;;;;;;5044984;28;20487;-76
2023/05/27 09:56:52;;;;;;;14.95;5.22;;;17.40;99.90;;;;;;5063881;28;20070;-76
2023/05/27 09:59:18;;;;;;;13.93;4.72;;;17.30;99.90;;;;;;5061075;28;20296;-76
2023/05/27 10:01:46;;;;;;;17.90;5.47;;;17.30;99.90;;;;;;5047497;28;20117;-76
2023/05/27 10:04:15;;;;;;;19.15;5.57;;;17.30;99.90;;;;;;5059223;28;20044;-76
2023/05/27 10:06:41;;;;;;;14.13;4.70;;;17.40;99.90;;;;;;5062706;28;20041;-76
2023/05/27 10:09:08;;;;;;;16.80;4.90;;;17.50;99.90;;;;;;5062555;28;20090;-76
2023/05/27 10:11:38;;;;;;;17.35;5.25;;;17.50;99.90;;;;;;5063493;28;20036;-76
2023/05/27 10:14:05;;;;;;;17.60;5.20;;;17.60;99.90;;;;;;5040052;28;20668;-76
2023/05/27 10:16:31;;;;;;;15.85;5.50;;;17.70;99.90;;;;;;5045064;28;20044;-76
2023/05/27 10:18:58;;;;;;;16.90;4.95;;;17.70;99.90;;;;;;5044001;28;20121;-76
2023/05/27 10:21:30;;;;;;;16.92;5.32;;;17.70;99.90;;;;;;5063123;28;20155;-76
2023/05/27 10:24:01;;;;;;;16.63;5.55;;;17.80;99.90;;;;;;5058018;28;20061;-76
2023/05/27 10:26:39;;;;;;;14.02;4.97;;;17.90;99.90;;;;;;5038228;28;20041;-76
2023/05/27 10:29:06;;;;;;;15.73;4.63;;;18.00;99.90;;;;;;5058545;28;20853;-76
2023/05/27 10:31:32;;;;;;;15.90;4.60;;;18.10;99.90;;;;;;5047251;28;20138;-76
2023/05/27 10:33:58;;;;;;;18.25;5.75;;;18.10;99.90;;;;;;5045022;28;20530;-76
2023/05/27 10:36:26;;;;;;;17.73;4.85;;;18.10;99.90;;;;;;5038479;28;20490;-77
2023/05/27 10:39:13;;;;;;;19.05;5.30;;;18.20;99.90;;;;;;5056536;28;20056;-77
2023/05/27 10:41:43;;;;;;;17.55;4.95;;;18.00;99.90;;;;;;5064209;28;20048;-76
2023/05/27 10:44:09;;;;;;;18.17;5.45;;;18.00;99.90;;;;;;5047719;28;20060;-76
2023/05/27 10:46:43;;;;;;;19.00;4.82;;;17.90;99.90;;;;;;5057641;28;20108;-76
2023/05/27 10:49:23;;;;;;;17.92;5.13;;;18.10;99.90;;;;;;5061154;28;20083;-76
2023/05/27 10:51:49;;;;;;;17.70;5.15;;;18.20;99.90;;;;;;5029209;28;20401;-76
2023/05/27 10:54:16;;;;;;;14.27;4.78;;;18.30;99.90;;;;;;5061269;28;20290;-76
2023/05/27 10:56:52;;;;;;;14.48;4.65;;;18.40;99.90;;;;;;5059677;28;20083;-76
2023/05/27 10:59:23;;;;;;;15.43;5.10;;;18.50;99.90;;;;;;5037373;28;20593;-76
2023/05/27 11:01:55;;;;;;;16.63;5.00;;;18.70;99.90;;;;;;5029383;28;20067;-77
2023/05/27 11:04:22;;;;;;;16.05;5.45;;;18.70;99.90;;;;;;5061299;28;20098;-76
2023/05/27 11:07:00;;;;;;;16.95;5.20;;;18.80;99.90;;;;;;5046165;28;20037;-76
2023/05/27 11:09:26;;;;;;;15.18;5.10;;;18.80;99.90;;;;;;5055345;28;20036;-76
2023/05/27 11:11:53;;;;;;;19.85;5.78;;;18.80;99.90;;;;;;5045623;28;20063;-76
2023/05/27 11:14:22;;;;;;;17.77;5.00;;;18.80;99.90;;;;;;5058551;28;20045;-76
2023/05/27 11:16:51;;;;;;;16.48;5.20;;;18.80;99.90;;;;;;5047793;28;20068;-76
2023/05/27 11:19:26;;;;;;;16.17;4.90;;;18.80;99.90;;;;;;5040790;28;20032;-76
2023/05/27 11:21:52;;;;;;;14.52;4.82;;;18.90;99.90;;;;;;5060273;28;20420;-76
2023/05/27 11:24:19;;;;;;;18.15;5.68;;;19.00;99.90;;;;;;5044331;28;20103;-76
2023/05/27 11:26:46;;;;;;;12.90;4.32;;;19.00;99.90;;;;;;5046396;28;20036;-76
2023/05/27 11:29:16;;;;;;;15.57;4.82;;;19.00;99.90;;;;;;5037581;28;20028;-76
2023/05/27 11:31:47;;;;;;;13.52;4.57;;;19.10;99.90;;;;;;5057543;28;20224;-76
2023/05/27 11:34:14;;;;;;;16.02;4.95;;;19.00;99.90;;;;;;5057850;28;20051;-76
2023/05/27 11:36:41;;;;;;;15.40;4.68;;;19.00;99.90;;;;;;5060509;28;20040;-76
2023/05/27 11:39:12;;;;;;;18.50;4.47;;;19.10;99.90;;;;;;5058265;28;20046;-76
2023/05/27 11:41:49;;;;;;;15.80;4.55;;;19.20;99.90;;;;;;5041541;28;20048;-76
2023/05/27 11:44:15;;;;;;;19.13;4.75;;;19.20;99.90;;;;;;5046538;28;20042;-77
2023/05/27 11:46:43;;;;;;;14.45;4.80;;;19.20;99.90;;;;;;5060440;28;20329;-77
2023/05/27 11:49:10;;;;;;;15.95;4.68;;;19.20;99.90;;;;;;5040835;28;20435;-76
2023/05/27 11:51:45;;;;;;;15.98;4.85;;;19.10;99.90;;;;;;5037209;28;20045;-76
2023/05/27 11:54:33;;;;;;;15.15;4.75;;;19.10;99.90;;;;;;5039749;28;20052;-77
2023/05/27 11:56:59;;;;;;;16.75;4.80;;;19.20;99.90;;;;;;5043237;28;20059;-76
2023/05/27 11:59:25;;;;;;;16.67;4.97;;;19.20;99.90;;;;;;5044449;28;20545;-76
2023/05/27 12:01:55;;;;;;;14.35;4.50;;;19.20;99.90;;;;;;5041162;28;20123;-77
2023/05/27 12:04:21;;;;;;;18.13;5.20;;;19.20;99.90;;;;;;5036099;28;20198;-76
2023/05/27 12:06:47;;;;;;;13.68;4.50;;;19.20;99.90;;;;;;5060352;28;20555;-77
2023/05/27 12:09:14;;;;;;;15.57;4.68;;;19.40;99.90;;;;;;5045121;28;20401;-76
2023/05/27 12:11:40;;;;;;;16.40;5.20;;;19.30;99.90;;;;;;5041723;28;20044;-76
2023/05/27 12:14:06;;;;;;;15.38;5.45;;;19.30;99.90;;;;;;5038942;28;20048;-76
2023/05/27 12:16:32;;;;;;;15.27;5.13;;;19.40;99.90;;;;;;5058003;28;20036;-76
2023/05/27 12:18:58;;;;;;;18.08;5.50;;;19.50;99.90;;;;;;5062065;28;20518;-76
2023/05/27 12:21:24;;;;;;;15.10;4.72;;;19.50;99.90;;;;;;5060640;28;20052;-77
2023/05/27 12:23:50;;;;;;;16.65;4.88;;;19.60;99.90;;;;;;5041003;28;20033;-76
2023/05/27 12:26:17;;;;;;;15.13;4.53;;;19.70;99.90;;;;;;5067532;28;20067;-76
2023/05/27 12:28:43;;;;;;;17.85;4.53;;;19.90;99.90;;;;;;5042155;28;20344;-76
2023/05/27 12:31:09;;;;;;;13.32;4.80;;;20.10;99.90;;;;;;5063845;28;20250;-76
2023/05/27 12:33:34;;;;;;;21.52;4.97;;;20.10;99.90;;;;;;5046605;28;20357;-77
2023/05/27 12:36:01;;;;;;;13.40;4.50;;;20.10;99.90;;;;;;5068974;28;20059;-76
2023/05/27 12:38:27;;;;;;;15.95;4.85;;;20.00;99.90;;;;;;5047226;28;20044;-76
2023/05/27 12:40:55;;;;;;;14.35;4.57;;;20.10;99.90;;;;;;5052353;28;20047;-76
2023/05/27 12:43:21;;;;;;;18.85;4.63;;;20.10;99.90;;;;;;5047453;28;20037;-77